Time;durP1;ratioP1;P1;durP2;ratioP2;P2;SDS_P1;SDS_P2;PMS_P1;PMS_P2;Temp;Humidity;BMP_temperature;BMP_pressure;BME280_temperature;BME280_humidity;BME280_pressure;Samples;Min_cycle;Max_cycle;Signal;HPM_P1;HPM_P2
2021/08/20 00:00:31;;;;;;;13.60;12.47;;;23.70;99.90;;;;;;2605768;54;20379;-61
2021/08/20 00:03:00;;;;;;;12.60;11.90;;;23.70;99.90;;;;;;2605330;39;20438;-61
2021/08/20 00:05:29;;;;;;;13.10;12.40;;;23.70;99.90;;;;;;2603526;54;20403;-59
2021/08/20 00:08:01;;;;;;;13.60;12.90;;;23.70;99.90;;;;;;2607412;54;20876;-60
2021/08/20 00:10:30;;;;;;;12.40;11.80;;;23.70;99.90;;;;;;2606659;54;20395;-61
2021/08/20 00:12:59;;;;;;;13.30;12.60;;;23.70;99.90;;;;;;2607226;54;21163;-61
2021/08/20 00:15:30;;;;;;;12.40;11.90;;;23.70;99.90;;;;;;2605765;54;20537;-60
2021/08/20 00:17:59;;;;;;;12.77;12.07;;;23.70;99.90;;;;;;2605946;39;20713;-60
2021/08/20 00:20:29;;;;;;;12.20;11.60;;;23.70;99.90;;;;;;2606161;54;20731;-61
2021/08/20 00:23:00;;;;;;;12.10;11.50;;;23.70;99.90;;;;;;2604686;54;20429;-61
2021/08/20 00:25:30;;;;;;;11.90;11.40;;;23.70;99.90;;;;;;2604810;54;20747;-60
2021/08/20 00:28:15;;;;;;;12.20;11.60;;;23.70;99.90;;;;;;2606343;54;20518;-61
2021/08/20 00:30:44;;;;;;;12.23;11.63;;;23.70;99.90;;;;;;2605332;54;20411;-61
2021/08/20 00:33:14;;;;;;;12.60;11.90;;;23.70;99.90;;;;;;2605857;54;20487;-61
2021/08/20 00:35:43;;;;;;;12.60;11.90;;;23.70;99.90;;;;;;2605183;54;20924;-61
2021/08/20 00:38:15;;;;;;;12.00;11.40;;;23.70;99.90;;;;;;2605801;54;20410;-60
2021/08/20 00:40:44;;;;;;;12.77;11.97;;;23.70;99.90;;;;;;2605707;54;20438;-60
2021/08/20 00:43:14;;;;;;;12.17;11.57;;;23.70;99.90;;;;;;2605694;39;20766;-60
2021/08/20 00:45:53;;;;;;;11.70;11.20;;;23.70;99.90;;;;;;2606120;39;20768;-60
2021/08/20 00:48:22;;;;;;;12.27;11.67;;;23.70;99.90;;;;;;2605458;39;20962;-59
2021/08/20 00:50:58;;;;;;;12.43;11.63;;;23.70;99.90;;;;;;2604527;54;20382;-60
2021/08/20 00:53:29;;;;;;;12.20;11.60;;;23.70;99.90;;;;;;2604953;54;20432;-61
2021/08/20 00:55:59;;;;;;;11.93;11.43;;;23.70;99.90;;;;;;2606214;54;20395;-61
2021/08/20 00:58:30;;;;;;;12.67;12.00;;;23.70;99.90;;;;;;2606991;54;20429;-59
2021/08/20 01:01:00;;;;;;;12.07;11.37;;;23.70;99.90;;;;;;2605333;39;20719;-60
2021/08/20 01:03:29;;;;;;;11.77;11.03;;;23.70;99.90;;;;;;2604062;54;20779;-61
2021/08/20 01:05:59;;;;;;;11.87;11.23;;;23.70;99.90;;;;;;2604704;54;20412;-59
2021/08/20 01:08:34;;;;;;;11.97;11.43;;;23.70;99.90;;;;;;2605271;54;20398;-61
2021/08/20 01:11:06;;;;;;;11.73;11.23;;;23.70;99.90;;;;;;2606149;39;20896;-61
2021/08/20 01:13:36;;;;;;;12.30;11.60;;;23.70;99.90;;;;;;2605603;54;20371;-60
2021/08/20 01:16:07;;;;;;;11.47;10.87;;;23.70;99.90;;;;;;2605025;39;20752;-61
2021/08/20 01:18:38;;;;;;;12.23;11.33;;;23.70;99.90;;;;;;2605726;54;21023;-61
2021/08/20 01:21:13;;;;;;;12.47;11.87;;;23.70;99.90;;;;;;2605493;54;20390;-61
2021/08/20 01:23:46;;;;;;;12.50;11.80;;;23.70;99.90;;;;;;2605637;39;20665;-59
2021/08/20 01:26:20;;;;;;;12.17;11.57;;;23.70;99.90;;;;;;2604576;54;20386;-61
2021/08/20 01:28:49;;;;;;;11.80;11.30;;;23.70;99.90;;;;;;2605346;54;20809;-61
2021/08/20 01:31:19;;;;;;;11.37;10.77;;;23.70;99.90;;;;;;2606044;47;20422;-61
2021/08/20 01:33:49;;;;;;;11.40;10.80;;;23.70;99.90;;;;;;2606733;54;20395;-59
2021/08/20 01:36:18;;;;;;;12.00;11.40;;;23.70;99.90;;;;;;2605949;54;20430;-60
2021/08/20 01:38:50;;;;;;;13.07;12.20;;;23.70;99.90;;;;;;2606500;54;20759;-59
2021/08/20 01:41:23;;;;;;;13.10;12.40;;;23.70;99.90;;;;;;2606344;54;20383;-61
2021/08/20 01:43:52;;;;;;;12.53;11.83;;;23.70;99.90;;;;;;2605869;54;20919;-59
2021/08/20 01:46:21;;;;;;;12.50;11.80;;;23.70;99.90;;;;;;2605834;54;20399;-60
2021/08/20 01:48:53;;;;;;;12.23;11.53;;;23.70;99.90;;;;;;2606584;54;20984;-61
2021/08/20 01:51:23;;;;;;;12.27;11.57;;;23.70;99.90;;;;;;2606310;54;20437;-61
2021/08/20 01:53:54;;;;;;;11.40;10.70;;;23.70;99.90;;;;;;2605731;31;20840;-61
2021/08/20 01:56:28;;;;;;;11.13;10.63;;;23.70;99.90;;;;;;2607373;39;20657;-61
2021/08/20 01:58:58;;;;;;;12.33;11.73;;;23.70;99.90;;;;;;2605466;54;20398;-60
2021/08/20 02:01:29;;;;;;;12.30;11.70;;;23.70;99.90;;;;;;2606297;54;20390;-61
2021/08/20 02:03:58;;;;;;;11.80;11.30;;;23.70;99.90;;;;;;2606446;39;20694;-61
2021/08/20 02:06:28;;;;;;;12.23;11.63;;;23.70;99.90;;;;;;2606928;54;20464;-61
2021/08/20 02:08:57;;;;;;;12.00;11.30;;;23.70;99.90;;;;;;2607063;54;20391;-61
2021/08/20 02:11:29;;;;;;;12.20;11.60;;;23.70;99.90;;;;;;2606797;54;20899;-61
2021/08/20 02:14:01;;;;;;;11.57;11.07;;;23.70;99.90;;;;;;2606608;54;20395;-61
2021/08/20 02:16:32;;;;;;;11.70;11.20;;;23.70;99.90;;;;;;2607582;54;20817;-61
2021/08/20 02:19:05;;;;;;;11.77;11.27;;;23.70;99.90;;;;;;2606803;54;20395;-60
2021/08/20 02:21:35;;;;;;;12.43;11.83;;;23.70;99.90;;;;;;2605668;54;20469;-60
2021/08/20 02:24:10;;;;;;;11.80;11.20;;;23.70;99.90;;;;;;2604498;39;20729;-62
2021/08/20 02:26:43;;;;;;;12.53;11.83;;;23.70;99.90;;;;;;2604666;54;20776;-61
2021/08/20 02:29:12;;;;;;;11.63;11.13;;;23.70;99.90;;;;;;2607289;54;20427;-62
2021/08/20 02:31:41;;;;;;;12.50;11.90;;;23.70;99.90;;;;;;2606058;39;20706;-59
2021/08/20 02:34:15;;;;;;;12.60;12.00;;;23.70;99.90;;;;;;2606200;39;20744;-60
2021/08/20 02:36:44;;;;;;;12.80;12.20;;;23.70;99.90;;;;;;2607866;39;20646;-62
2021/08/20 02:39:13;;;;;;;12.30;11.70;;;23.70;99.90;;;;;;2606549;39;20756;-60
2021/08/20 02:41:45;;;;;;;11.80;11.30;;;23.70;99.90;;;;;;2606160;54;20415;-61
2021/08/20 02:44:15;;;;;;;13.37;12.67;;;23.70;99.90;;;;;;2603429;31;20814;-61
2021/08/20 02:46:45;;;;;;;12.23;11.70;;;23.70;99.90;;;;;;2605646;54;20402;-60
2021/08/20 02:49:14;;;;;;;12.60;12.00;;;23.70;99.90;;;;;;2605037;54;21152;-61
2021/08/20 02:51:43;;;;;;;12.90;12.20;;;23.70;99.90;;;;;;2606332;54;20410;-62
2021/08/20 02:54:12;;;;;;;12.70;12.00;;;23.70;99.90;;;;;;2604756;54;21154;-61
2021/08/20 02:56:41;;;;;;;12.40;11.80;;;23.70;99.90;;;;;;2605570;54;20406;-62
2021/08/20 02:59:14;;;;;;;12.43;11.83;;;23.70;99.90;;;;;;2605772;54;20387;-62
2021/08/20 03:01:48;;;;;;;13.00;12.40;;;23.70;99.90;;;;;;2605353;50;20379;-61
2021/08/20 03:04:18;;;;;;;12.80;12.20;;;23.70;99.90;;;;;;2604606;46;20436;-60
2021/08/20 03:06:48;;;;;;;13.83;13.13;;;23.70;99.90;;;;;;2605399;54;20457;-61
2021/08/20 03:09:47;;;;;;;12.10;11.60;;;23.70;99.90;;;;;;2606167;54;20780;-61
2021/08/20 03:12:16;;;;;;;12.73;12.10;;;23.70;99.90;;;;;;2605090;54;20383;-60
2021/08/20 03:14:55;;;;;;;14.00;13.30;;;23.70;99.90;;;;;;2605182;39;21159;-60
2021/08/20 03:17:30;;;;;;;13.40;12.80;;;23.70;99.90;;;;;;2606412;54;20410;-60
2021/08/20 03:19:59;;;;;;;13.83;13.13;;;23.70;99.90;;;;;;2607492;39;20684;-61
2021/08/20 03:22:42;;;;;;;14.20;13.53;;;23.70;99.90;;;;;;2606758;54;20461;-61
2021/08/20 03:25:18;;;;;;;13.43;12.83;;;23.70;99.90;;;;;;2606134;54;21155;-61
2021/08/20 03:27:48;;;;;;;14.23;13.40;;;23.70;99.90;;;;;;2605443;54;20553;-60
2021/08/20 03:30:40;;;;;;;12.97;12.37;;;23.70;99.90;;;;;;2607126;39;20442;-61
2021/08/20 03:33:12;;;;;;;13.97;13.17;;;23.70;99.90;;;;;;2605785;54;20398;-60
2021/08/20 03:35:50;;;;;;;13.73;13.03;;;23.70;99.90;;;;;;2604624;54;20811;-60
2021/08/20 03:38:23;;;;;;;13.50;12.90;;;23.70;99.90;;;;;;2605960;54;20409;-61
2021/08/20 03:40:52;;;;;;;13.73;13.03;;;23.70;99.90;;;;;;2605561;47;20403;-60
2021/08/20 03:43:26;;;;;;;14.30;13.60;;;23.70;99.90;;;;;;2604705;54;20394;-60
2021/08/20 03:46:14;;;;;;;13.67;12.87;;;23.70;99.90;;;;;;2606443;54;20937;-61
2021/08/20 03:48:45;;;;;;;13.10;12.40;;;23.70;99.90;;;;;;2606436;54;20419;-61
2021/08/20 03:51:15;;;;;;;13.10;12.50;;;23.70;99.90;;;;;;2604631;54;20398;-61
2021/08/20 03:53:44;;;;;;;14.47;13.77;;;23.70;99.90;;;;;;2605114;54;20767;-61
2021/08/20 03:56:13;;;;;;;15.30;14.40;;;23.70;99.90;;;;;;2607267;54;20398;-60
2021/08/20 03:59:08;;;;;;;14.20;13.50;;;23.70;99.90;;;;;;2596770;54;20924;-60
2021/08/20 04:01:40;;;;;;;14.70;13.80;;;23.70;99.90;;;;;;2605385;54;20403;-61
2021/08/20 04:04:10;;;;;;;13.73;13.03;;;23.70;99.90;;;;;;2605491;47;20429;-61
2021/08/20 04:06:45;;;;;;;14.43;13.83;;;23.70;99.90;;;;;;2604683;54;20433;-61
2021/08/20 04:09:15;;;;;;;14.03;13.30;;;23.70;99.90;;;;;;2604108;54;21161;-60
2021/08/20 04:11:54;;;;;;;14.43;13.63;;;23.70;99.90;;;;;;2604256;54;20837;-61
2021/08/20 04:14:36;;;;;;;14.47;13.87;;;23.70;99.90;;;;;;2602734;54;20506;-61
2021/08/20 04:17:09;;;;;;;14.17;13.47;;;23.70;99.90;;;;;;2604502;54;20994;-61
2021/08/20 04:19:41;;;;;;;15.07;14.23;;;23.70;99.90;;;;;;2604017;54;20810;-61
2021/08/20 04:22:11;;;;;;;14.73;14.03;;;23.70;99.90;;;;;;2602730;54;20419;-60
2021/08/20 04:24:43;;;;;;;15.43;14.63;;;23.70;99.90;;;;;;2603545;54;20414;-60
2021/08/20 04:27:47;;;;;;;15.50;14.67;;;23.70;99.90;;;;;;2599792;39;20814;-61
2021/08/20 04:30:30;;;;;;;16.10;15.20;;;23.70;99.90;;;;;;2599992;54;20414;-60
2021/08/20 04:33:22;;;;;;;14.57;13.97;;;23.70;99.90;;;;;;2598421;54;21080;-61
2021/08/20 04:36:12;;;;;;;15.77;14.87;;;23.70;99.90;;;;;;2598398;54;20728;-60
2021/08/20 04:38:59;;;;;;;14.40;13.80;;;23.70;99.90;;;;;;2598462;54;20450;-61
2021/08/20 04:41:42;;;;;;;14.97;14.17;;;23.70;99.90;;;;;;2599593;54;20398;-61
2021/08/20 04:44:26;;;;;;;14.60;13.90;;;23.70;99.90;;;;;;2597079;54;20398;-61
2021/08/20 04:47:11;;;;;;;14.60;14.00;;;23.70;99.90;;;;;;2598478;39;20789;-61
2021/08/20 04:50:09;;;;;;;14.53;13.93;;;23.70;99.90;;;;;;2596551;54;20422;-60
2021/08/20 04:53:02;;;;;;;14.43;13.53;;;23.70;99.90;;;;;;2593597;47;20418;-61
2021/08/20 04:56:01;;;;;;;14.73;14.13;;;23.60;99.90;;;;;;2594012;54;20939;-61
2021/08/20 04:58:31;;;;;;;14.67;14.07;;;23.70;99.90;;;;;;2594435;54;21154;-61
2021/08/20 05:01:00;;;;;;;14.80;14.10;;;23.70;99.90;;;;;;2594832;47;20391;-62
2021/08/20 05:03:29;;;;;;;14.37;13.70;;;23.60;99.90;;;;;;2593788;54;20446;-61
2021/08/20 05:06:02;;;;;;;15.10;14.30;;;23.70;99.90;;;;;;2594230;54;20391;-62
2021/08/20 05:08:32;;;;;;;14.40;13.80;;;23.70;99.90;;;;;;2590903;54;20407;-61
2021/08/20 05:11:01;;;;;;;14.57;13.77;;;23.70;99.90;;;;;;2591082;54;20397;-60
2021/08/20 05:13:30;;;;;;;14.00;13.40;;;23.70;99.90;;;;;;2590716;39;20739;-62
2021/08/20 05:16:00;;;;;;;14.47;13.80;;;23.70;99.90;;;;;;2590738;54;20378;-61
2021/08/20 05:18:29;;;;;;;14.33;13.73;;;23.70;99.90;;;;;;2592940;54;20900;-62
2021/08/20 05:21:01;;;;;;;14.87;14.10;;;23.70;99.90;;;;;;2588078;39;20706;-61
2021/08/20 05:23:30;;;;;;;13.93;13.33;;;23.70;99.90;;;;;;2585268;54;20387;-61
2021/08/20 05:25:59;;;;;;;15.97;14.97;;;23.70;99.90;;;;;;2590057;39;20794;-62
2021/08/20 05:28:28;;;;;;;14.73;14.03;;;23.70;99.90;;;;;;2588077;39;20743;-61
2021/08/20 05:30:57;;;;;;;14.07;13.47;;;23.70;99.90;;;;;;2583951;54;20767;-61
2021/08/20 05:33:27;;;;;;;14.50;13.60;;;23.70;99.90;;;;;;2584041;54;21262;-61
2021/08/20 05:35:56;;;;;;;14.10;13.30;;;23.70;99.90;;;;;;2584452;39;20652;-61
2021/08/20 05:38:28;;;;;;;14.27;13.67;;;23.70;99.90;;;;;;2578099;54;20828;-61
2021/08/20 05:40:57;;;;;;;14.63;13.97;;;23.70;99.90;;;;;;2579698;39;20630;-61
2021/08/20 05:43:26;;;;;;;15.30;14.63;;;23.70;99.90;;;;;;2577096;39;20729;-61
2021/08/20 05:45:56;;;;;;;14.50;13.70;;;23.70;99.90;;;;;;2577164;54;21101;-61
2021/08/20 05:48:25;;;;;;;14.23;13.63;;;23.70;99.90;;;;;;2573984;54;20383;-61
2021/08/20 05:50:54;;;;;;;14.93;14.13;;;23.70;99.90;;;;;;2575806;39;20744;-61
2021/08/20 05:53:23;;;;;;;14.60;14.00;;;23.70;99.90;;;;;;2575085;54;21075;-59
2021/08/20 05:55:55;;;;;;;14.47;13.87;;;23.70;99.90;;;;;;2576988;54;20412;-62
2021/08/20 05:58:25;;;;;;;14.60;13.80;;;23.70;99.90;;;;;;2569732;54;20854;-61
2021/08/20 06:00:54;;;;;;;14.37;13.70;;;23.70;99.90;;;;;;2565679;54;20791;-61
2021/08/20 06:03:24;;;;;;;14.00;13.20;;;23.70;99.90;;;;;;2569005;54;20421;-60
2021/08/20 06:05:56;;;;;;;13.63;13.10;;;23.70;99.90;;;;;;2569962;54;20821;-59
2021/08/20 06:08:27;;;;;;;14.07;13.30;;;23.70;99.90;;;;;;2568249;54;20403;-62
2021/08/20 06:10:59;;;;;;;15.20;14.30;;;23.70;99.90;;;;;;2570978;54;20867;-61
2021/08/20 06:13:28;;;;;;;13.80;13.20;;;23.70;99.90;;;;;;2570100;54;21147;-60
2021/08/20 06:15:57;;;;;;;13.73;12.97;;;23.70;99.90;;;;;;2575312;54;20803;-62
2021/08/20 06:18:27;;;;;;;14.40;13.70;;;23.70;99.90;;;;;;2556267;54;20909;-60
2021/08/20 06:20:56;;;;;;;14.00;13.30;;;23.70;99.90;;;;;;2561165;54;20777;-60
2021/08/20 06:23:25;;;;;;;13.90;13.30;;;23.70;99.90;;;;;;2571850;39;20605;-62
2021/08/20 06:25:55;;;;;;;15.00;14.30;;;23.70;99.90;;;;;;2571287;54;20766;-61
2021/08/20 06:28:26;;;;;;;14.07;13.37;;;23.70;99.90;;;;;;2572285;54;21075;-60
2021/08/20 06:30:57;;;;;;;14.60;13.80;;;23.70;99.90;;;;;;2573192;54;21231;-61
2021/08/20 06:33:26;;;;;;;14.60;14.00;;;23.60;99.90;;;;;;2572507;54;20406;-61
2021/08/20 06:35:55;;;;;;;13.87;13.27;;;23.20;99.90;;;;;;2575178;54;20703;-61
2021/08/20 06:38:25;;;;;;;14.70;13.87;;;23.00;99.90;;;;;;2574216;39;20742;-60
2021/08/20 06:40:54;;;;;;;14.40;13.60;;;22.80;99.90;;;;;;2569189;54;20384;-60
2021/08/20 06:43:26;;;;;;;14.10;13.50;;;22.70;99.90;;;;;;2569888;54;20704;-60
2021/08/20 06:45:55;;;;;;;14.27;13.50;;;22.70;99.90;;;;;;2569796;54;21351;-62
2021/08/20 06:48:24;;;;;;;13.73;13.10;;;22.60;99.90;;;;;;2568728;54;20998;-60
2021/08/20 06:50:53;;;;;;;14.10;13.30;;;22.50;99.90;;;;;;2570510;54;20399;-60
2021/08/20 06:53:23;;;;;;;13.83;13.13;;;22.40;99.90;;;;;;2569173;54;20943;-59
2021/08/20 06:55:52;;;;;;;13.83;13.13;;;22.30;99.90;;;;;;2570093;54;20701;-59
2021/08/20 06:58:21;;;;;;;14.03;13.13;;;22.20;99.90;;;;;;2571144;54;20379;-60
2021/08/20 07:00:53;;;;;;;13.00;12.50;;;22.00;99.90;;;;;;2569395;54;20398;-60
2021/08/20 07:03:22;;;;;;;13.43;12.83;;;22.10;99.90;;;;;;2570874;39;20756;-60
2021/08/20 07:05:51;;;;;;;13.43;12.83;;;22.00;99.90;;;;;;2566445;54;20402;-61
2021/08/20 07:08:20;;;;;;;14.00;13.23;;;22.00;99.90;;;;;;2568611;54;21168;-61
2021/08/20 07:10:49;;;;;;;14.03;13.23;;;22.00;99.90;;;;;;2567596;39;20821;-61
2021/08/20 07:13:19;;;;;;;13.73;13.03;;;22.00;99.90;;;;;;2566471;54;20956;-61
2021/08/20 07:15:48;;;;;;;13.20;12.70;;;21.90;99.90;;;;;;2569357;39;20611;-61
2021/08/20 07:18:20;;;;;;;13.53;13.03;;;21.90;99.90;;;;;;2565537;54;20741;-61
2021/08/20 07:20:49;;;;;;;13.33;12.77;;;22.00;99.90;;;;;;2566953;54;20414;-61
2021/08/20 07:23:18;;;;;;;12.87;12.40;;;22.00;99.90;;;;;;2570561;39;20623;-61
2021/08/20 07:25:48;;;;;;;12.43;11.93;;;22.00;99.90;;;;;;2564253;54;20666;-62
2021/08/20 07:28:17;;;;;;;13.60;13.00;;;22.00;99.90;;;;;;2564257;54;20958;-62
2021/08/20 07:30:46;;;;;;;14.10;13.30;;;22.10;99.90;;;;;;2566749;54;20511;-61
2021/08/20 07:33:15;;;;;;;14.67;13.93;;;22.10;99.90;;;;;;2569318;54;21246;-58
2021/08/20 07:35:47;;;;;;;13.90;13.17;;;22.10;99.90;;;;;;2567830;54;20735;-56
2021/08/20 07:38:17;;;;;;;14.63;13.87;;;22.30;99.90;;;;;;2565778;54;20931;-59
2021/08/20 07:40:47;;;;;;;13.70;13.10;;;22.30;99.90;;;;;;2562466;54;20383;-59
2021/08/20 07:43:16;;;;;;;14.00;13.23;;;22.30;99.90;;;;;;2563664;54;21012;-59
2021/08/20 07:45:45;;;;;;;13.37;12.70;;;22.40;99.90;;;;;;2568300;39;20660;-59
2021/08/20 07:48:15;;;;;;;13.03;12.43;;;22.50;99.90;;;;;;2573778;39;20746;-60
2021/08/20 07:50:50;;;;;;;13.77;13.17;;;22.50;99.90;;;;;;2571653;39;21078;-59
2021/08/20 07:53:20;;;;;;;12.70;12.10;;;22.60;99.90;;;;;;2573239;54;20485;-60
2021/08/20 07:55:49;;;;;;;12.53;12.00;;;22.70;99.90;;;;;;2572960;54;20411;-60
2021/08/20 07:58:18;;;;;;;13.03;12.43;;;22.70;99.90;;;;;;2572379;54;20418;-60
2021/08/20 08:00:48;;;;;;;13.57;12.93;;;22.80;99.90;;;;;;2568154;54;21255;-60
2021/08/20 08:03:17;;;;;;;13.30;12.67;;;22.80;99.90;;;;;;2569800;54;20754;-59
2021/08/20 08:05:46;;;;;;;13.33;12.73;;;22.90;99.90;;;;;;2571660;54;20391;-60
2021/08/20 08:08:18;;;;;;;13.17;12.67;;;23.00;99.90;;;;;;2572418;54;20445;-59
2021/08/20 08:10:47;;;;;;;13.00;12.30;;;23.10;99.90;;;;;;2571800;54;20395;-61
2021/08/20 08:13:16;;;;;;;14.17;13.57;;;23.10;99.90;;;;;;2570420;54;20403;-59
2021/08/20 08:15:46;;;;;;;13.87;13.27;;;23.20;99.90;;;;;;2567654;54;20399;-59
2021/08/20 08:18:15;;;;;;;14.20;13.50;;;23.30;99.90;;;;;;2572437;54;20398;-60
2021/08/20 08:20:44;;;;;;;13.80;13.20;;;23.30;99.90;;;;;;2575120;54;21491;-59
2021/08/20 08:23:13;;;;;;;13.90;13.30;;;23.40;99.90;;;;;;2573670;47;20430;-60
2021/08/20 08:25:45;;;;;;;14.07;13.47;;;23.40;99.90;;;;;;2562907;54;20387;-61
2021/08/20 08:28:14;;;;;;;13.50;12.90;;;23.40;99.90;;;;;;2574603;39;20720;-58
2021/08/20 08:30:47;;;;;;;13.53;12.83;;;23.50;99.90;;;;;;2569192;47;20582;-60
2021/08/20 08:33:18;;;;;;;13.90;13.20;;;23.50;99.90;;;;;;2564192;54;20414;-61
2021/08/20 08:35:48;;;;;;;13.70;13.17;;;23.50;99.90;;;;;;2570081;39;20744;-61
2021/08/20 08:38:18;;;;;;;13.73;12.83;;;23.50;99.90;;;;;;2570465;54;20434;-61
2021/08/20 08:40:51;;;;;;;14.10;13.30;;;23.50;99.90;;;;;;2564110;39;20616;-61
2021/08/20 08:43:20;;;;;;;13.20;12.60;;;23.50;99.90;;;;;;2566746;54;21210;-61
2021/08/20 08:45:49;;;;;;;13.40;12.73;;;23.50;99.90;;;;;;2570085;54;21347;-61
2021/08/20 08:48:18;;;;;;;14.40;13.60;;;23.60;99.90;;;;;;2565642;54;21189;-61
2021/08/20 08:50:49;;;;;;;14.50;13.70;;;23.60;99.90;;;;;;2565519;54;20394;-62
2021/08/20 08:53:18;;;;;;;14.47;13.77;;;23.60;99.90;;;;;;2570722;54;20935;-60
2021/08/20 08:55:53;;;;;;;14.27;13.50;;;23.60;99.90;;;;;;2564557;54;20999;-60
2021/08/20 08:58:22;;;;;;;14.50;13.70;;;23.60;99.90;;;;;;2568335;54;20399;-59
2021/08/20 09:00:51;;;;;;;14.13;13.43;;;23.60;99.90;;;;;;2566733;54;20755;-61
2021/08/20 09:03:25;;;;;;;15.50;14.33;;;23.60;99.90;;;;;;2561632;39;20670;-61
2021/08/20 09:05:55;;;;;;;14.00;13.40;;;23.60;99.90;;;;;;2564102;54;20530;-62
2021/08/20 09:08:26;;;;;;;14.40;13.80;;;23.60;99.90;;;;;;2561799;54;20469;-61
2021/08/20 09:11:00;;;;;;;14.70;13.90;;;23.60;99.90;;;;;;2565580;54;20410;-60
2021/08/20 09:13:30;;;;;;;15.53;14.40;;;23.60;99.90;;;;;;2564082;54;20715;-61
2021/08/20 09:16:10;;;;;;;14.03;13.30;;;23.60;99.90;;;;;;2563397;39;20755;-60
2021/08/20 09:18:39;;;;;;;14.27;13.63;;;23.60;99.90;;;;;;2565370;54;20379;-61
2021/08/20 09:21:09;;;;;;;14.20;13.60;;;23.60;99.90;;;;;;2569904;54;20405;-61
2021/08/20 09:23:40;;;;;;;15.23;14.37;;;23.60;99.90;;;;;;2568059;39;20905;-62
2021/08/20 09:26:12;;;;;;;14.37;13.67;;;23.60;99.90;;;;;;2567619;54;21265;-61
2021/08/20 09:28:42;;;;;;;14.40;13.57;;;23.60;99.90;;;;;;2569773;39;20666;-61
2021/08/20 09:31:13;;;;;;;13.70;13.10;;;23.70;99.90;;;;;;2566406;54;20429;-60
2021/08/20 09:33:51;;;;;;;14.60;13.80;;;23.70;99.90;;;;;;2567118;54;20800;-61
2021/08/20 09:36:23;;;;;;;13.50;12.90;;;23.70;99.90;;;;;;2567571;39;20798;-61
2021/08/20 09:38:54;;;;;;;14.50;13.90;;;23.70;99.90;;;;;;2570900;54;20383;-62
2021/08/20 09:41:31;;;;;;;13.63;12.93;;;23.70;99.90;;;;;;2569469;54;20406;-59
2021/08/20 09:44:04;;;;;;;13.80;13.10;;;23.70;99.90;;;;;;2566871;54;20513;-59
2021/08/20 09:46:42;;;;;;;14.20;13.50;;;23.60;99.90;;;;;;2568266;54;21162;-61
2021/08/20 09:49:13;;;;;;;13.07;12.57;;;23.70;99.90;;;;;;2567266;54;20386;-60
2021/08/20 09:51:45;;;;;;;14.60;13.90;;;23.70;99.90;;;;;;2562222;39;20791;-60
2021/08/20 09:54:17;;;;;;;13.10;12.40;;;23.70;99.90;;;;;;2562706;54;20405;-60
2021/08/20 09:56:49;;;;;;;15.23;14.13;;;23.70;99.90;;;;;;2568747;54;20419;-65
2021/08/20 09:59:19;;;;;;;14.30;13.50;;;23.70;99.90;;;;;;2566675;54;20938;-60
2021/08/20 10:01:50;;;;;;;14.50;13.70;;;23.70;99.90;;;;;;2563280;39;20554;-62
2021/08/20 10:04:20;;;;;;;15.70;14.70;;;23.70;99.90;;;;;;2566397;39;20718;-61
2021/08/20 10:06:51;;;;;;;15.27;14.53;;;23.70;99.90;;;;;;2564671;54;20844;-58
2021/08/20 10:09:21;;;;;;;16.30;15.23;;;23.70;99.90;;;;;;2568269;54;21160;-62
2021/08/20 10:11:54;;;;;;;15.93;14.50;;;23.70;99.90;;;;;;2572060;39;20829;-61
2021/08/20 10:14:27;;;;;;;14.40;13.63;;;23.70;99.90;;;;;;2567975;39;20642;-62
2021/08/20 10:16:56;;;;;;;14.43;13.70;;;23.80;99.90;;;;;;2568098;39;20523;-62
2021/08/20 10:19:26;;;;;;;14.60;13.90;;;23.70;99.90;;;;;;2571582;54;20922;-62
2021/08/20 10:21:55;;;;;;;14.50;13.80;;;23.80;99.90;;;;;;2569101;51;21206;-62
2021/08/20 10:24:24;;;;;;;14.17;13.40;;;23.70;99.90;;;;;;2570100;54;20421;-62
2021/08/20 10:27:00;;;;;;;14.30;13.70;;;23.70;99.90;;;;;;2566973;54;20833;-63
2021/08/20 10:29:32;;;;;;;14.20;13.60;;;23.80;99.90;;;;;;2566348;39;21143;-62
2021/08/20 10:32:06;;;;;;;14.23;13.53;;;23.80;99.90;;;;;;2518198;54;2929433;-63
2021/08/20 10:34:37;;;;;;;14.23;13.43;;;23.80;99.90;;;;;;2567463;54;20397;-62
2021/08/20 10:37:08;;;;;;;14.57;13.70;;;23.70;99.90;;;;;;2564139;39;20792;-62
2021/08/20 10:39:39;;;;;;;14.37;13.60;;;23.70;99.90;;;;;;2565467;54;20877;-62
2021/08/20 10:42:13;;;;;;;13.47;12.87;;;23.80;99.90;;;;;;2569396;54;21037;-62
2021/08/20 10:44:44;;;;;;;13.10;12.40;;;23.80;99.90;;;;;;2567826;54;21419;-62
2021/08/20 10:47:31;;;;;;;13.57;12.87;;;23.80;99.90;;;;;;2569470;54;20403;-62
2021/08/20 10:50:13;;;;;;;13.07;12.37;;;23.80;99.90;;;;;;2564187;39;20654;-62
2021/08/20 10:52:44;;;;;;;13.63;12.90;;;23.80;99.90;;;;;;2564450;39;20632;-62
2021/08/20 10:55:17;;;;;;;13.23;12.63;;;23.80;99.90;;;;;;2568406;54;20809;-62
2021/08/20 10:58:13;;;;;;;13.60;12.80;;;23.80;99.90;;;;;;2567123;39;20744;-62
2021/08/20 11:00:45;;;;;;;13.33;12.73;;;23.80;99.90;;;;;;2564843;54;20784;-62
2021/08/20 11:03:14;;;;;;;13.87;13.10;;;23.80;99.90;;;;;;2566665;54;20398;-61
2021/08/20 11:05:45;;;;;;;13.27;12.67;;;23.80;99.90;;;;;;2569676;54;20391;-62
2021/08/20 11:08:45;;;;;;;13.37;12.63;;;23.80;99.90;;;;;;2569384;54;20449;-62
2021/08/20 11:11:46;;;;;;;15.17;13.93;;;23.80;99.90;;;;;;2573240;54;20449;-61
2021/08/20 11:14:44;;;;;;;13.30;12.70;;;23.80;99.90;;;;;;2570822;54;20390;-62
2021/08/20 11:17:15;;;;;;;13.87;13.07;;;23.80;99.90;;;;;;2571311;54;20403;-62
2021/08/20 11:19:58;;;;;;;13.60;13.00;;;23.80;99.90;;;;;;2570770;54;20888;-61
2021/08/20 11:22:46;;;;;;;13.60;12.90;;;23.80;99.90;;;;;;2571823;54;20984;-62
2021/08/20 11:25:26;;;;;;;14.27;13.57;;;23.70;99.90;;;;;;2576002;54;20521;-62
2021/08/20 11:28:04;;;;;;;14.33;13.43;;;23.80;99.90;;;;;;2573128;54;21265;-62
2021/08/20 11:30:38;;;;;;;13.50;12.90;;;23.80;99.90;;;;;;2564980;54;20465;-61
2021/08/20 11:33:18;;;;;;;13.80;12.97;;;23.80;99.90;;;;;;2567882;54;20433;-61
2021/08/20 11:35:50;;;;;;;14.77;13.90;;;23.80;99.90;;;;;;2579055;54;21763;-62
2021/08/20 11:38:32;;;;;;;14.70;13.70;;;23.80;99.90;;;;;;2580556;39;21076;-62
2021/08/20 11:41:09;;;;;;;13.33;12.73;;;23.80;99.90;;;;;;2575733;39;20767;-62
2021/08/20 11:43:39;;;;;;;14.00;13.30;;;23.80;99.90;;;;;;2579605;39;20757;-60
2021/08/20 11:46:11;;;;;;;14.13;13.40;;;23.80;99.90;;;;;;2579889;39;20788;-60
2021/08/20 11:48:45;;;;;;;13.87;13.07;;;23.80;99.90;;;;;;2580937;54;20762;-59
2021/08/20 11:51:15;;;;;;;14.30;13.60;;;23.80;99.90;;;;;;2578650;47;20391;-59
2021/08/20 11:53:50;;;;;;;15.43;14.57;;;23.90;99.90;;;;;;2575235;51;20418;-59
2021/08/20 11:56:19;;;;;;;14.27;13.00;;;23.90;99.90;;;;;;2576704;48;20445;-60
2021/08/20 11:58:49;;;;;;;13.80;12.93;;;23.90;99.90;;;;;;2583175;39;20821;-60
2021/08/20 12:01:27;;;;;;;14.23;13.63;;;23.90;99.90;;;;;;2578694;54;20437;-58
2021/08/20 12:03:58;;;;;;;14.70;14.00;;;23.90;99.90;;;;;;2580339;54;20414;-59
2021/08/20 12:06:28;;;;;;;15.30;14.17;;;23.90;99.90;;;;;;2582244;47;20978;-60
2021/08/20 12:09:09;;;;;;;14.07;13.40;;;23.90;99.90;;;;;;2580350;54;20425;-60
2021/08/20 12:11:42;;;;;;;14.90;14.00;;;23.90;99.90;;;;;;2581069;54;20398;-59
2021/08/20 12:14:18;;;;;;;14.37;13.67;;;23.90;99.90;;;;;;2583659;54;20363;-60
2021/08/20 12:17:23;;;;;;;14.20;13.50;;;23.90;99.90;;;;;;2584874;47;20414;-59
2021/08/20 12:19:52;;;;;;;14.67;13.87;;;23.90;99.90;;;;;;2582461;54;20422;-59
2021/08/20 12:22:22;;;;;;;14.37;13.73;;;23.90;99.80;;;;;;2579350;54;20449;-58
2021/08/20 12:24:54;;;;;;;14.53;13.73;;;23.90;99.70;;;;;;2580191;54;20407;-60
2021/08/20 12:27:25;;;;;;;14.87;14.07;;;23.90;99.60;;;;;;2583588;54;20394;-59
2021/08/20 12:30:18;;;;;;;15.23;14.43;;;23.90;99.60;;;;;;2581098;54;20410;-60
2021/08/20 12:32:57;;;;;;;14.70;14.00;;;23.90;99.60;;;;;;2580219;54;20430;-61
2021/08/20 12:35:28;;;;;;;14.70;14.00;;;23.90;99.50;;;;;;2577825;54;21786;-59
2021/08/20 12:38:09;;;;;;;15.20;14.50;;;23.90;99.40;;;;;;2582315;54;20410;-59
2021/08/20 12:40:43;;;;;;;15.23;14.53;;;23.90;99.40;;;;;;2587325;54;20383;-60
2021/08/20 12:43:26;;;;;;;15.07;14.47;;;23.90;99.30;;;;;;2589154;54;20428;-59
2021/08/20 12:46:11;;;;;;;15.80;15.00;;;23.90;99.30;;;;;;2587036;39;21050;-60
2021/08/20 12:48:45;;;;;;;14.93;14.23;;;23.90;99.10;;;;;;2585639;54;20406;-58
2021/08/20 12:51:16;;;;;;;14.67;13.97;;;23.90;99.00;;;;;;2587968;54;20399;-60
2021/08/20 12:53:45;;;;;;;16.57;15.23;;;23.90;99.00;;;;;;2588828;54;20387;-59